Time;durP1;ratioP1;P1;durP2;ratioP2;P2;SDS_P1;SDS_P2;PMS_P1;PMS_P2;Temp;Humidity;BMP_temperature;BMP_pressure;BME280_temperature;BME280_humidity;BME280_pressure;Samples;Min_cycle;Max_cycle;Signal;HPM_P1;HPM_P2
2022/03/06 00:01:34;;;;;;;31.47;18.50;;;;;;;;;;5050210;28;20215;-59
2022/03/06 00:04:00;;;;;;;30.63;17.87;;;;;;;;;;5049286;28;20329;-59
2022/03/06 00:06:25;;;;;;;31.43;17.83;;;;;;;;;;5049743;28;20211;-59
2022/03/06 00:08:50;;;;;;;29.23;18.20;;;;;;;;;;5050209;28;20573;-59
2022/03/06 00:11:16;;;;;;;30.67;17.40;;;;;;;;;;5048806;28;20233;-59
2022/03/06 00:13:41;;;;;;;31.07;17.77;;;;;;;;;;5050184;28;20583;-59
2022/03/06 00:16:06;;;;;;;32.20;18.90;;;;;;;;;;5049678;28;20249;-59
2022/03/06 00:18:31;;;;;;;28.40;17.20;;;;;;;;;;5049584;28;20205;-59
2022/03/06 00:20:59;;;;;;;30.00;17.40;;;;;;;;;;5049883;28;20207;-59
2022/03/06 00:23:24;;;;;;;31.93;17.80;;;;;;;;;;5049664;28;20272;-59
2022/03/06 00:25:49;;;;;;;29.40;17.07;;;;;;;;;;5053759;28;20207;-59
2022/03/06 00:28:14;;;;;;;27.37;16.70;;;;;;;;;;5069379;28;20211;-59
2022/03/06 00:30:41;;;;;;;32.73;18.30;;;;;;;;;;5069806;28;20686;-59
2022/03/06 00:33:07;;;;;;;29.10;17.47;;;;;;;;;;5068748;28;20695;-59
2022/03/06 00:35:32;;;;;;;31.73;18.03;;;;;;;;;;5051503;28;20704;-59
2022/03/06 00:37:57;;;;;;;33.03;18.70;;;;;;;;;;5069906;28;20221;-59
2022/03/06 00:40:23;;;;;;;31.10;18.77;;;;;;;;;;5068425;28;20286;-59
2022/03/06 00:42:48;;;;;;;35.03;19.47;;;;;;;;;;5069980;28;20340;-59
2022/03/06 00:45:13;;;;;;;30.77;17.70;;;;;;;;;;5056065;28;20894;-59
2022/03/06 00:47:39;;;;;;;36.70;19.20;;;;;;;;;;5048885;28;20258;-59
2022/03/06 00:50:04;;;;;;;38.23;20.27;;;;;;;;;;5031205;28;20229;-58
2022/03/06 00:52:29;;;;;;;38.47;21.53;;;;;;;;;;5049722;28;20209;-59
2022/03/06 00:54:55;;;;;;;33.10;19.40;;;;;;;;;;5049046;28;20543;-59
2022/03/06 00:57:20;;;;;;;35.07;20.43;;;;;;;;;;5049142;28;20223;-59
2022/03/06 00:59:45;;;;;;;38.67;20.67;;;;;;;;;;5049672;28;20219;-59
2022/03/06 01:02:10;;;;;;;33.13;18.50;;;;;;;;;;5048427;28;20235;-59
2022/03/06 01:04:37;;;;;;;31.17;18.20;;;;;;;;;;5052293;28;20643;-59
2022/03/06 01:07:03;;;;;;;43.40;23.73;;;;;;;;;;5051953;28;20207;-59
2022/03/06 01:09:28;;;;;;;29.73;17.70;;;;;;;;;;5053312;28;20674;-59
2022/03/06 01:11:54;;;;;;;33.73;18.57;;;;;;;;;;5053209;28;20732;-59
2022/03/06 01:14:19;;;;;;;32.50;18.03;;;;;;;;;;5051941;28;20670;-59
2022/03/06 01:16:44;;;;;;;37.17;20.87;;;;;;;;;;5053190;28;20221;-59
2022/03/06 01:19:09;;;;;;;43.07;22.07;;;;;;;;;;5052557;28;20230;-59
2022/03/06 01:21:35;;;;;;;41.67;21.83;;;;;;;;;;5051908;28;20211;-59
2022/03/06 01:24:00;;;;;;;30.73;17.97;;;;;;;;;;5053178;28;20555;-59
2022/03/06 01:26:25;;;;;;;28.70;18.40;;;;;;;;;;5061820;28;20217;-59
2022/03/06 01:28:50;;;;;;;30.70;17.43;;;;;;;;;;5072221;28;20203;-59
2022/03/06 01:31:16;;;;;;;29.77;17.00;;;;;;;;;;5072137;28;20261;-59
2022/03/06 01:33:41;;;;;;;28.27;17.23;;;;;;;;;;5072907;28;20206;-59
2022/03/06 01:36:06;;;;;;;27.27;16.33;;;;;;;;;;5071406;28;20217;-59
2022/03/06 01:38:31;;;;;;;26.10;16.63;;;;;;;;;;5072865;28;20202;-59
2022/03/06 01:40:57;;;;;;;25.83;16.97;;;;;;;;;;5072698;28;20780;-59
2022/03/06 01:43:22;;;;;;;25.57;15.93;;;;;;;;;;5071471;28;20255;-59
2022/03/06 01:45:47;;;;;;;24.63;15.37;;;;;;;;;;5054788;28;20203;-59
2022/03/06 01:48:12;;;;;;;25.53;15.77;;;;;;;;;;5034103;28;20242;-59
2022/03/06 01:50:38;;;;;;;25.53;16.17;;;;;;;;;;5051626;28;20632;-59
2022/03/06 01:53:05;;;;;;;25.40;15.50;;;;;;;;;;5051843;28;20207;-58
2022/03/06 01:55:30;;;;;;;26.90;15.53;;;;;;;;;;5052575;28;20219;-59
2022/03/06 01:57:56;;;;;;;26.20;16.00;;;;;;;;;;5033869;28;20206;-59
2022/03/06 02:00:23;;;;;;;25.17;16.57;;;;;;;;;;5033980;28;20207;-59
2022/03/06 02:02:48;;;;;;;25.30;15.60;;;;;;;;;;5052288;28;20203;-59
2022/03/06 02:05:13;;;;;;;23.60;15.23;;;;;;;;;;5050951;28;20701;-59
2022/03/06 02:07:39;;;;;;;25.20;15.73;;;;;;;;;;5051975;28;20564;-59
2022/03/06 02:10:05;;;;;;;26.70;15.37;;;;;;;;;;5051723;28;20273;-58
2022/03/06 02:12:31;;;;;;;26.20;15.50;;;;;;;;;;5051167;28;20207;-59
2022/03/06 02:14:57;;;;;;;24.40;16.10;;;;;;;;;;5033871;28;20253;-59
2022/03/06 02:17:22;;;;;;;24.07;15.50;;;;;;;;;;5050699;28;20203;-59
2022/03/06 02:19:52;;;;;;;23.53;15.07;;;;;;;;;;5051965;28;20298;-59
2022/03/06 02:22:19;;;;;;;23.37;15.57;;;;;;;;;;5051174;28;20203;-59
2022/03/06 02:24:44;;;;;;;25.40;15.63;;;;;;;;;;5051160;28;20616;-60
2022/03/06 02:27:09;;;;;;;25.77;16.43;;;;;;;;;;5066537;28;20293;-59
2022/03/06 02:29:35;;;;;;;24.20;15.77;;;;;;;;;;5071741;28;20249;-59
2022/03/06 02:32:00;;;;;;;23.03;15.50;;;;;;;;;;5052662;28;20237;-58
2022/03/06 02:34:26;;;;;;;23.77;15.53;;;;;;;;;;5053804;28;20267;-59
2022/03/06 02:36:51;;;;;;;23.90;15.70;;;;;;;;;;5053717;28;20210;-59
2022/03/06 02:39:16;;;;;;;24.97;15.50;;;;;;;;;;5070220;28;20252;-59
2022/03/06 02:41:41;;;;;;;25.93;16.47;;;;;;;;;;5071503;28;20692;-60
2022/03/06 02:44:07;;;;;;;22.33;14.67;;;;;;;;;;5067040;28;20203;-58
2022/03/06 02:46:32;;;;;;;26.23;15.40;;;;;;;;;;5050741;28;20288;-59
2022/03/06 02:48:58;;;;;;;25.60;14.90;;;;;;;;;;5051200;28;20732;-59
2022/03/06 02:51:23;;;;;;;24.87;15.13;;;;;;;;;;5050880;28;20587;-59
2022/03/06 02:53:49;;;;;;;24.17;15.53;;;;;;;;;;5050465;28;20215;-59
2022/03/06 02:56:14;;;;;;;23.40;15.83;;;;;;;;;;5050874;28;20704;-59
2022/03/06 02:58:39;;;;;;;23.03;15.27;;;;;;;;;;5051074;28;20269;-59
2022/03/06 03:01:04;;;;;;;24.23;15.90;;;;;;;;;;5050055;28;20214;-59
2022/03/06 03:03:37;;;;;;;24.03;15.33;;;;;;;;;;5050892;28;20628;-59
2022/03/06 03:06:02;;;;;;;28.47;17.27;;;;;;;;;;5050690;28;20680;-59
2022/03/06 03:08:27;;;;;;;25.27;15.80;;;;;;;;;;5032001;28;20215;-59
2022/03/06 03:10:53;;;;;;;25.80;15.67;;;;;;;;;;5051036;28;20277;-59
2022/03/06 03:13:19;;;;;;;21.50;14.67;;;;;;;;;;5032656;28;20242;-59
2022/03/06 03:15:44;;;;;;;25.87;16.20;;;;;;;;;;5050222;28;20207;-59
2022/03/06 03:18:09;;;;;;;25.33;15.57;;;;;;;;;;5050189;28;20301;-59
2022/03/06 03:20:34;;;;;;;23.03;14.90;;;;;;;;;;5050226;28;20199;-59
2022/03/06 03:23:00;;;;;;;24.43;15.53;;;;;;;;;;5050760;28;20285;-59
2022/03/06 03:25:26;;;;;;;24.20;15.47;;;;;;;;;;5051477;28;20917;-59
2022/03/06 03:27:51;;;;;;;22.93;15.13;;;;;;;;;;5069080;28;20206;-59
2022/03/06 03:30:16;;;;;;;25.33;15.40;;;;;;;;;;5070025;28;20230;-58
2022/03/06 03:32:42;;;;;;;24.27;15.17;;;;;;;;;;5052446;28;20203;-59
2022/03/06 03:35:07;;;;;;;22.43;15.53;;;;;;;;;;5069336;28;20704;-59
2022/03/06 03:37:32;;;;;;;23.47;15.67;;;;;;;;;;5070624;28;20206;-59
2022/03/06 03:39:58;;;;;;;25.87;15.30;;;;;;;;;;5070214;28;20633;-59
2022/03/06 03:42:23;;;;;;;23.80;15.23;;;;;;;;;;5069255;28;20209;-59
2022/03/06 03:44:48;;;;;;;24.80;16.37;;;;;;;;;;5042718;28;20231;-59
2022/03/06 03:47:13;;;;;;;24.33;14.77;;;;;;;;;;5049838;28;20265;-59
2022/03/06 03:49:38;;;;;;;24.57;15.53;;;;;;;;;;5049293;28;20227;-59
2022/03/06 03:52:04;;;;;;;24.80;15.80;;;;;;;;;;5049938;28;20237;-58
2022/03/06 03:54:29;;;;;;;25.23;15.47;;;;;;;;;;5049905;28;20218;-59
2022/03/06 03:56:55;;;;;;;22.60;14.50;;;;;;;;;;5049584;28;20207;-59
2022/03/06 03:59:20;;;;;;;24.83;16.07;;;;;;;;;;5049638;28;21220;-59
2022/03/06 04:01:45;;;;;;;21.77;14.97;;;;;;;;;;5050171;28;20207;-59
2022/03/06 04:04:10;;;;;;;27.37;16.13;;;;;;;;;;5048987;28;20207;-59
2022/03/06 04:06:36;;;;;;;24.43;15.77;;;;;;;;;;5032424;28;20639;-59
2022/03/06 04:09:01;;;;;;;24.20;15.60;;;;;;;;;;5049543;28;20242;-58
2022/03/06 04:11:26;;;;;;;25.13;15.67;;;;;;;;;;5031305;28;20227;-59
2022/03/06 04:13:52;;;;;;;21.47;14.97;;;;;;;;;;5050111;28;20242;-59
2022/03/06 04:16:17;;;;;;;22.83;15.37;;;;;;;;;;5049611;28;20226;-59
2022/03/06 04:18:42;;;;;;;23.10;15.17;;;;;;;;;;5049290;28;20256;-59
2022/03/06 04:21:07;;;;;;;23.17;15.03;;;;;;;;;;5049533;28;20682;-58
2022/03/06 04:23:33;;;;;;;21.73;14.00;;;;;;;;;;5050171;28;20233;-59
2022/03/06 04:25:58;;;;;;;25.97;14.87;;;;;;;;;;5054705;28;20673;-59
2022/03/06 04:28:23;;;;;;;24.63;15.73;;;;;;;;;;5069505;28;20221;-59
2022/03/06 04:30:49;;;;;;;23.73;14.77;;;;;;;;;;5069797;28;20226;-59
2022/03/06 04:33:14;;;;;;;25.40;15.50;;;;;;;;;;5068719;28;20203;-59
2022/03/06 04:35:39;;;;;;;23.27;14.50;;;;;;;;;;5069922;28;20588;-59
2022/03/06 04:38:05;;;;;;;22.27;14.47;;;;;;;;;;5069023;28;20206;-58
2022/03/06 04:40:30;;;;;;;22.83;14.87;;;;;;;;;;5073577;28;20225;-59
2022/03/06 04:42:55;;;;;;;25.17;15.23;;;;;;;;;;5073883;28;20220;-59
2022/03/06 04:45:23;;;;;;;24.43;15.27;;;;;;;;;;5058394;28;20219;-59
2022/03/06 04:47:48;;;;;;;24.23;15.33;;;;;;;;;;5053502;28;20679;-59
2022/03/06 04:50:13;;;;;;;22.57;14.00;;;;;;;;;;5053187;28;20231;-59
2022/03/06 04:52:39;;;;;;;21.73;14.90;;;;;;;;;;5052920;28;20276;-59
2022/03/06 04:55:04;;;;;;;22.27;14.70;;;;;;;;;;5053130;28;20681;-59
2022/03/06 04:57:29;;;;;;;22.33;14.13;;;;;;;;;;5053728;28;20332;-59
2022/03/06 04:59:55;;;;;;;22.00;14.47;;;;;;;;;;5034864;28;20208;-59
2022/03/06 05:02:20;;;;;;;22.37;14.10;;;;;;;;;;5052879;28;20349;-59
2022/03/06 05:04:45;;;;;;;22.27;14.70;;;;;;;;;;5053437;28;20207;-59
2022/03/06 05:07:10;;;;;;;21.97;14.80;;;;;;;;;;5052176;28;20246;-59
2022/03/06 05:09:36;;;;;;;23.67;15.47;;;;;;;;;;5053199;28;20207;-59
2022/03/06 05:12:01;;;;;;;22.33;13.67;;;;;;;;;;5052583;28;20207;-59
2022/03/06 05:14:26;;;;;;;22.90;14.40;;;;;;;;;;5052608;28;20352;-59
2022/03/06 05:16:51;;;;;;;24.20;15.60;;;;;;;;;;5053083;28;20207;-59
2022/03/06 05:19:17;;;;;;;22.63;15.03;;;;;;;;;;5052654;28;20238;-59
2022/03/06 05:21:42;;;;;;;21.43;14.53;;;;;;;;;;5052180;28;20290;-59
2022/03/06 05:24:07;;;;;;;22.07;14.13;;;;;;;;;;5052662;28;20272;-59
2022/03/06 05:26:32;;;;;;;22.40;14.67;;;;;;;;;;5063034;28;20285;-59
2022/03/06 05:28:58;;;;;;;23.07;14.90;;;;;;;;;;5072495;28;20210;-59
2022/03/06 05:31:23;;;;;;;22.17;15.03;;;;;;;;;;5072154;28;20229;-59
2022/03/06 05:33:48;;;;;;;24.00;14.87;;;;;;;;;;5072909;28;20293;-59
2022/03/06 05:36:13;;;;;;;21.77;14.60;;;;;;;;;;5071649;28;20256;-59
2022/03/06 05:38:39;;;;;;;23.67;14.40;;;;;;;;;;5072691;28;20209;-59
2022/03/06 05:41:04;;;;;;;21.03;14.50;;;;;;;;;;5054265;28;20263;-59
2022/03/06 05:43:29;;;;;;;22.77;14.83;;;;;;;;;;5071994;28;20202;-59
2022/03/06 05:45:54;;;;;;;24.27;14.60;;;;;;;;;;5053942;28;20215;-59
2022/03/06 05:48:20;;;;;;;22.30;15.00;;;;;;;;;;5050998;28;20254;-59
2022/03/06 05:50:45;;;;;;;25.90;15.87;;;;;;;;;;5051485;28;20230;-59
2022/03/06 05:53:10;;;;;;;22.03;14.73;;;;;;;;;;5051564;28;20211;-58
2022/03/06 05:55:36;;;;;;;21.13;14.50;;;;;;;;;;5051575;28;20309;-58
2022/03/06 05:58:01;;;;;;;22.93;16.47;;;;;;;;;;5051575;28;20255;-57
2022/03/06 06:00:26;;;;;;;23.50;16.03;;;;;;;;;;5052298;28;20442;-57
2022/03/06 06:02:51;;;;;;;25.43;16.30;;;;;;;;;;5051377;28;20235;-59
2022/03/06 06:05:17;;;;;;;22.70;14.67;;;;;;;;;;5051876;28;20590;-59
2022/03/06 06:07:42;;;;;;;23.07;15.53;;;;;;;;;;5052067;28;20234;-60
2022/03/06 06:10:08;;;;;;;24.33;16.10;;;;;;;;;;5052538;28;20265;-60
2022/03/06 06:12:33;;;;;;;24.50;16.10;;;;;;;;;;5071842;28;20203;-59
2022/03/06 06:14:59;;;;;;;25.07;16.17;;;;;;;;;;5054154;28;20631;-60
2022/03/06 06:17:24;;;;;;;23.10;15.80;;;;;;;;;;5070476;28;20217;-60
2022/03/06 06:19:49;;;;;;;23.93;16.73;;;;;;;;;;5072004;28;20214;-60
2022/03/06 06:22:14;;;;;;;22.93;16.13;;;;;;;;;;5071381;28;20210;-60
2022/03/06 06:24:39;;;;;;;25.03;17.23;;;;;;;;;;5070972;28;20217;-60
2022/03/06 06:27:05;;;;;;;21.80;14.87;;;;;;;;;;5056185;28;20249;-60
2022/03/06 06:29:30;;;;;;;24.80;16.70;;;;;;;;;;5051622;28;20290;-58
2022/03/06 06:31:56;;;;;;;27.27;17.43;;;;;;;;;;5050664;28;20207;-60
2022/03/06 06:34:21;;;;;;;25.83;17.53;;;;;;;;;;5051107;28;20211;-60
2022/03/06 06:36:46;;;;;;;25.97;16.47;;;;;;;;;;5051653;28;20211;-60
2022/03/06 06:39:12;;;;;;;26.53;17.83;;;;;;;;;;5049986;28;20227;-60
2022/03/06 06:41:38;;;;;;;27.07;16.83;;;;;;;;;;5051591;28;20226;-60
2022/03/06 06:44:04;;;;;;;25.30;17.10;;;;;;;;;;5054007;28;20199;-59
2022/03/06 06:46:29;;;;;;;25.63;16.87;;;;;;;;;;5070431;28;20206;-59
2022/03/06 06:48:54;;;;;;;23.83;17.13;;;;;;;;;;5071125;28;20223;-59
2022/03/06 06:51:20;;;;;;;26.40;16.70;;;;;;;;;;5070666;28;20229;-59
2022/03/06 06:53:45;;;;;;;25.40;18.17;;;;;;;;;;5070372;28;20279;-59
2022/03/06 06:56:10;;;;;;;27.90;16.70;;;;;;;;;;5070615;28;20276;-59
2022/03/06 06:58:35;;;;;;;23.57;16.07;;;;;;;;;;5070340;28;20211;-59
2022/03/06 07:01:01;;;;;;;24.93;16.83;;;;;;;;;;5052492;28;20206;-58
2022/03/06 07:03:26;;;;;;;24.73;18.83;;;;;;;;;;5070006;28;20448;-58
2022/03/06 07:05:51;;;;;;;24.67;16.03;;;;;;;;;;5051788;28;20230;-59
2022/03/06 07:08:16;;;;;;;22.47;15.80;;;;;;;;;;5070067;28;20248;-59
2022/03/06 07:10:42;;;;;;;20.97;14.67;;;;;;;;;;5070360;28;20218;-59
2022/03/06 07:13:07;;;;;;;22.43;15.00;;;;;;;;;;5068922;28;20534;-59
2022/03/06 07:15:33;;;;;;;23.17;15.53;;;;;;;;;;5070536;28;20216;-59
2022/03/06 07:17:58;;;;;;;23.80;15.70;;;;;;;;;;5070026;28;20209;-59
2022/03/06 07:20:24;;;;;;;22.27;15.07;;;;;;;;;;5069531;28;20574;-60
2022/03/06 07:22:49;;;;;;;22.87;14.83;;;;;;;;;;5070349;28;20214;-60
2022/03/06 07:25:14;;;;;;;22.00;14.37;;;;;;;;;;5067127;28;20292;-60
2022/03/06 07:27:40;;;;;;;22.60;14.60;;;;;;;;;;5048310;28;20704;-59
2022/03/06 07:30:05;;;;;;;21.67;15.13;;;;;;;;;;5049065;28;20254;-60
2022/03/06 07:32:30;;;;;;;22.10;14.27;;;;;;;;;;5053302;28;20629;-60
2022/03/06 07:34:56;;;;;;;23.07;14.30;;;;;;;;;;5048805;28;20203;-60
2022/03/06 07:37:21;;;;;;;20.63;14.43;;;;;;;;;;5051685;28;20206;-60
2022/03/06 07:39:47;;;;;;;18.60;13.40;;;;;;;;;;5051714;28;20215;-61
2022/03/06 07:42:12;;;;;;;17.50;12.67;;;;;;;;;;5030630;28;20203;-61
2022/03/06 07:44:37;;;;;;;20.20;13.30;;;;;;;;;;5040158;28;20559;-61
2022/03/06 07:47:02;;;;;;;17.50;12.10;;;;;;;;;;5069531;28;20222;-61
2022/03/06 07:49:28;;;;;;;19.20;12.53;;;;;;;;;;5069134;28;20697;-61
2022/03/06 07:51:53;;;;;;;17.77;12.23;;;;;;;;;;5070294;28;20283;-61
2022/03/06 07:54:18;;;;;;;18.13;11.73;;;;;;;;;;5069573;28;20217;-61
2022/03/06 07:56:45;;;;;;;19.87;11.70;;;;;;;;;;5069178;28;20210;-61
2022/03/06 07:59:10;;;;;;;17.73;11.03;;;;;;;;;;5069428;28;20210;-61
2022/03/06 08:01:35;;;;;;;18.27;12.00;;;;;;;;;;5069941;28;20229;-61
2022/03/06 08:04:01;;;;;;;18.03;10.83;;;;;;;;;;5068583;28;20228;-61
2022/03/06 08:06:26;;;;;;;16.00;11.27;;;;;;;;;;5069657;28;20214;-61
2022/03/06 08:08:51;;;;;;;14.70;10.20;;;;;;;;;;5070008;28;20294;-62
2022/03/06 08:11:16;;;;;;;14.50;10.57;;;;;;;;;;5068201;28;20226;-61
2022/03/06 08:13:42;;;;;;;14.43;9.80;;;;;;;;;;5068921;28;20217;-62
2022/03/06 08:16:07;;;;;;;12.47;9.00;;;;;;;;;;5068534;28;20210;-62
2022/03/06 08:18:32;;;;;;;14.37;10.00;;;;;;;;;;5052137;28;20271;-62
2022/03/06 08:20:57;;;;;;;15.80;9.70;;;;;;;;;;5069662;28;20206;-62
2022/03/06 08:23:23;;;;;;;11.73;8.70;;;;;;;;;;5067940;28;20385;-62
2022/03/06 08:25:48;;;;;;;14.77;9.57;;;;;;;;;;5065390;28;20571;-62
2022/03/06 08:28:13;;;;;;;13.97;8.77;;;;;;;;;;5049174;28;20230;-62
2022/03/06 08:30:39;;;;;;;12.47;8.57;;;;;;;;;;5048821;28;20215;-61
2022/03/06 08:33:04;;;;;;;11.07;8.20;;;;;;;;;;5049396;28;20211;-61
2022/03/06 08:35:30;;;;;;;12.73;8.20;;;;;;;;;;5049719;28;20207;-62
2022/03/06 08:37:55;;;;;;;12.50;8.35;;;;;;;;;;5049091;28;20214;-62
2022/03/06 08:40:20;;;;;;;13.33;8.27;;;;;;;;;;5048972;28;20305;-61
2022/03/06 08:42:45;;;;;;;12.88;8.80;;;;;;;;;;5031815;28;20215;-62
2022/03/06 08:45:11;;;;;;;12.77;9.13;;;;;;;;;;5060890;28;20202;-62
2022/03/06 08:47:36;;;;;;;10.50;7.83;;;;;;;;;;5069593;28;20340;-61
2022/03/06 08:50:01;;;;;;;12.20;7.73;;;;;;;;;;5069068;28;20221;-61
2022/03/06 08:52:27;;;;;;;15.40;8.90;;;;;;;;;;5068992;28;20210;-62
2022/03/06 08:54:52;;;;;;;13.52;7.63;;;;;;;;;;5069456;28;20549;-62
2022/03/06 08:57:17;;;;;;;12.52;8.10;;;;;;;;;;5068884;28;20214;-62
2022/03/06 08:59:43;;;;;;;12.95;8.00;;;;;;;;;;5050460;28;20210;-62
2022/03/06 09:02:08;;;;;;;11.45;7.32;;;;;;;;;;5068170;28;20210;-61
2022/03/06 09:04:33;;;;;;;9.52;6.55;;;;;;;;;;5069618;28;20218;-62
2022/03/06 09:06:59;;;;;;;11.63;7.03;;;;;;;;;;5068759;28;20675;-62
2022/03/06 09:09:24;;;;;;;10.05;6.93;;;;;;;;;;5051018;28;20293;-62
2022/03/06 09:11:49;;;;;;;10.40;6.45;;;;;;;;;;5069086;28;20885;-62
2022/03/06 09:14:15;;;;;;;10.75;6.80;;;;;;;;;;5068062;28;20248;-62
2022/03/06 09:16:40;;;;;;;9.43;6.30;;;;;;;;;;5051260;28;20503;-62
2022/03/06 09:19:05;;;;;;;10.23;6.38;;;;;;;;;;5068969;28;20626;-61
2022/03/06 09:21:30;;;;;;;9.80;6.13;;;;;;;;;;5068743;28;20249;-62
2022/03/06 09:23:56;;;;;;;9.15;5.95;;;;;;;;;;5069448;28;20203;-62
2022/03/06 09:26:21;;;;;;;10.00;5.70;;;;;;;;;;5061149;28;20654;-62
2022/03/06 09:28:46;;;;;;;9.98;5.60;;;;;;;;;;5052664;28;20289;-62
2022/03/06 09:31:11;;;;;;;9.13;5.57;;;;;;;;;;5051883;28;20215;-61
2022/03/06 09:33:37;;;;;;;8.82;5.30;;;;;;;;;;5034370;28;20217;-62
2022/03/06 09:36:02;;;;;;;7.53;5.45;;;;;;;;;;5034407;28;20736;-62
2022/03/06 09:38:27;;;;;;;9.35;5.82;;;;;;;;;;5052780;28;20211;-62
2022/03/06 09:40:53;;;;;;;9.93;5.28;;;;;;;;;;5051826;28;20693;-62
2022/03/06 09:43:18;;;;;;;9.15;4.95;;;;;;;;;;5034415;28;20655;-61
2022/03/06 09:45:44;;;;;;;7.78;5.30;;;;;;;;;;5051892;28;20203;-62
2022/03/06 09:48:10;;;;;;;8.55;5.55;;;;;;;;;;5071119;28;20226;-61
2022/03/06 09:50:35;;;;;;;8.15;5.50;;;;;;;;;;5072481;28;20249;-61
2022/03/06 09:53:00;;;;;;;10.33;5.40;;;;;;;;;;5072462;28;20229;-62
2022/03/06 09:55:26;;;;;;;8.60;5.20;;;;;;;;;;5053480;28;20290;-62
2022/03/06 09:57:52;;;;;;;9.52;5.53;;;;;;;;;;5054354;28;20355;-61
2022/03/06 10:00:18;;;;;;;10.90;5.72;;;;;;;;;;5071906;28;20210;-62
2022/03/06 10:02:54;;;;;;;8.23;5.10;;;;;;;;;;5053518;28;20213;-62
2022/03/06 10:05:29;;;;;;;10.48;4.80;;;;;;;;;;5053893;28;20210;-62
2022/03/06 10:08:08;;;;;;;10.18;5.28;;;;;;;;;;5072248;28;20689;-62
2022/03/06 10:10:35;;;;;;;6.78;5.00;;;;;;;;;;5053061;28;20317;-62
2022/03/06 10:13:05;;;;;;;10.55;5.82;;;;;;;;;;5071634;28;20206;-61
2022/03/06 10:15:31;;;;;;;9.57;6.05;;;;;;;;;;5072034;28;20214;-62
2022/03/06 10:17:59;;;;;;;10.25;5.60;;;;;;;;;;5071649;28;20669;-62
2022/03/06 10:20:25;;;;;;;11.60;5.65;;;;;;;;;;5053438;28;20225;-61
2022/03/06 10:22:51;;;;;;;10.45;5.95;;;;;;;;;;5036428;28;20229;-61
2022/03/06 10:25:17;;;;;;;9.98;5.78;;;;;;;;;;5071512;28;20293;-61
2022/03/06 10:27:48;;;;;;;9.20;5.70;;;;;;;;;;5051759;28;20247;-61
2022/03/06 10:30:33;;;;;;;8.70;5.77;;;;;;;;;;5050224;28;20229;-61
2022/03/06 10:32:59;;;;;;;9.40;5.90;;;;;;;;;;5062780;28;20257;-61
2022/03/06 10:35:31;;;;;;;8.82;5.95;;;;;;;;;;5038570;28;20214;-61
2022/03/06 10:37:57;;;;;;;8.00;5.43;;;;;;;;;;5050226;28;20215;-61
2022/03/06 10:40:34;;;;;;;8.82;5.28;;;;;;;;;;5049710;28;20223;-61
2022/03/06 10:42:59;;;;;;;10.75;6.15;;;;;;;;;;5051419;28;20226;-61
2022/03/06 10:45:25;;;;;;;7.18;5.25;;;;;;;;;;5064948;28;20681;-61
2022/03/06 10:47:50;;;;;;;7.38;5.47;;;;;;;;;;5070805;28;20208;-61
2022/03/06 10:50:20;;;;;;;9.13;5.47;;;;;;;;;;5052881;28;20665;-61
2022/03/06 10:52:45;;;;;;;9.07;5.83;;;;;;;;;;5070597;28;20211;-61
2022/03/06 10:55:10;;;;;;;8.75;5.90;;;;;;;;;;5070757;28;20213;-61
2022/03/06 10:57:36;;;;;;;10.93;5.55;;;;;;;;;;5071237;28;20273;-61
2022/03/06 11:00:01;;;;;;;7.82;5.63;;;;;;;;;;5069969;28;20195;-61
2022/03/06 11:02:27;;;;;;;9.03;5.43;;;;;;;;;;5071017;28;20240;-61
2022/03/06 11:04:56;;;;;;;8.77;5.70;;;;;;;;;;5052308;28;20486;-61
2022/03/06 11:07:22;;;;;;;9.48;5.93;;;;;;;;;;5036666;28;20579;-61
2022/03/06 11:09:47;;;;;;;8.65;5.65;;;;;;;;;;5052821;28;20662;-61
2022/03/06 11:12:12;;;;;;;10.90;6.13;;;;;;;;;;5069689;28;20665;-61
2022/03/06 11:14:37;;;;;;;8.48;4.85;;;;;;;;;;5070862;28;20206;-61
2022/03/06 11:17:03;;;;;;;7.97;5.13;;;;;;;;;;5070157;28;20217;-61
2022/03/06 11:19:32;;;;;;;8.00;4.90;;;;;;;;;;5069895;28;20217;-61
2022/03/06 11:22:00;;;;;;;8.95;4.82;;;;;;;;;;5070768;28;20581;-61
2022/03/06 11:24:27;;;;;;;8.23;5.10;;;;;;;;;;5070107;28;20212;-61
2022/03/06 11:27:02;;;;;;;7.38;4.53;;;;;;;;;;5069776;28;20293;-61
2022/03/06 11:29:37;;;;;;;7.68;4.97;;;;;;;;;;5070302;28;20673;-61
2022/03/06 11:32:04;;;;;;;8.73;5.00;;;;;;;;;;5069514;28;20222;-61
2022/03/06 11:34:30;;;;;;;8.00;5.32;;;;;;;;;;5051863;28;20222;-61
2022/03/06 11:36:55;;;;;;;8.48;5.32;;;;;;;;;;5070653;28;20210;-61
2022/03/06 11:39:30;;;;;;;7.20;5.30;;;;;;;;;;5052077;28;20210;-61
2022/03/06 11:41:55;;;;;;;8.18;5.00;;;;;;;;;;5069883;28;20209;-61
2022/03/06 11:44:34;;;;;;;9.25;5.82;;;;;;;;;;5046151;28;20264;-61
2022/03/06 11:47:00;;;;;;;9.07;5.32;;;;;;;;;;5049580;28;20717;-61
2022/03/06 11:49:35;;;;;;;9.40;5.38;;;;;;;;;;5048816;28;20713;-61
2022/03/06 11:52:00;;;;;;;8.13;6.10;;;;;;;;;;5050200;28;20709;-61
2022/03/06 11:54:27;;;;;;;10.23;5.90;;;;;;;;;;5049258;28;20210;-61
2022/03/06 11:56:53;;;;;;;10.07;5.93;;;;;;;;;;5032407;28;20265;-61
2022/03/06 11:59:22;;;;;;;8.80;5.72;;;;;;;;;;5049712;28;20432;-61
2022/03/06 12:01:50;;;;;;;9.20;5.93;;;;;;;;;;5049740;28;20250;-61
2022/03/06 12:04:16;;;;;;;7.53;5.57;;;;;;;;;;5049627;28;20215;-61
2022/03/06 12:06:42;;;;;;;9.43;6.10;;;;;;;;;;5050196;28;20215;-61
2022/03/06 12:09:24;;;;;;;8.63;6.07;;;;;;;;;;5030964;28;20233;-61
2022/03/06 12:11:51;;;;;;;8.73;5.60;;;;;;;;;;5050116;28;20215;-61
2022/03/06 12:14:17;;;;;;;12.32;6.20;;;;;;;;;;5049146;28;20226;-61
2022/03/06 12:17:02;;;;;;;9.00;5.55;;;;;;;;;;5049445;28;20229;-61
2022/03/06 12:19:28;;;;;;;8.50;5.75;;;;;;;;;;5049869;28;20222;-61
2022/03/06 12:22:07;;;;;;;9.67;5.60;;;;;;;;;;5031975;28;20584;-61
2022/03/06 12:24:32;;;;;;;7.78;5.60;;;;;;;;;;5031573;28;20215;-61
2022/03/06 12:26:57;;;;;;;8.63;6.00;;;;;;;;;;5063669;28;20352;-61
2022/03/06 12:29:41;;;;;;;9.05;6.10;;;;;;;;;;5068712;28;20203;-61
2022/03/06 12:32:25;;;;;;;9.02;6.05;;;;;;;;;;5069447;28;20579;-61
2022/03/06 12:34:57;;;;;;;9.38;6.50;;;;;;;;;;5069905;28;20736;-61
2022/03/06 12:37:23;;;;;;;9.57;5.70;;;;;;;;;;5068585;28;20206;-61
2022/03/06 12:39:48;;;;;;;9.73;6.95;;;;;;;;;;5051855;28;20724;-61
2022/03/06 12:42:14;;;;;;;9.43;6.03;;;;;;;;;;5051497;28;20218;-61
2022/03/06 12:44:44;;;;;;;9.63;6.53;;;;;;;;;;5060662;28;20283;-61
2022/03/06 12:47:09;;;;;;;9.55;6.15;;;;;;;;;;5049322;28;20265;-61
2022/03/06 12:49:34;;;;;;;8.53;6.03;;;;;;;;;;5049456;28;20222;-61
2022/03/06 12:52:00;;;;;;;9.88;6.45;;;;;;;;;;5048831;28;20250;-61
2022/03/06 12:54:26;;;;;;;9.50;6.45;;;;;;;;;;5031389;28;20298;-61
2022/03/06 12:56:52;;;;;;;9.30;6.20;;;;;;;;;;5049690;28;20591;-61
2022/03/06 12:59:17;;;;;;;7.55;5.63;;;;;;;;;;5031182;28;20290;-61
2022/03/06 13:01:43;;;;;;;8.88;6.00;;;;;;;;;;5053398;28;20211;-61
2022/03/06 13:04:08;;;;;;;9.47;6.00;;;;;;;;;;5052871;28;20214;-61
2022/03/06 13:06:34;;;;;;;8.18;6.00;;;;;;;;;;5052515;28;20207;-61
2022/03/06 13:09:00;;;;;;;8.02;5.57;;;;;;;;;;5035483;28;20584;-61
2022/03/06 13:11:25;;;;;;;7.93;5.95;;;;;;;;;;5034130;28;20231;-61
2022/03/06 13:13:58;;;;;;;8.63;5.68;;;;;;;;;;5052991;28;20211;-61
2022/03/06 13:16:24;;;;;;;9.45;6.20;;;;;;;;;;5052356;28;20214;-61
2022/03/06 13:18:49;;;;;;;8.40;5.97;;;;;;;;;;5034723;28;20246;-61
2022/03/06 13:21:16;;;;;;;10.40;6.50;;;;;;;;;;5052308;28;20605;-61
2022/03/06 13:23:41;;;;;;;8.82;5.85;;;;;;;;;;5053126;28;20337;-61
2022/03/06 13:26:07;;;;;;;9.10;6.38;;;;;;;;;;5058439;28;20677;-61
2022/03/06 13:28:32;;;;;;;8.52;6.20;;;;;;;;;;5072771;28;20207;-61
2022/03/06 13:30:59;;;;;;;9.05;5.90;;;;;;;;;;5054619;28;20327;-61
2022/03/06 13:33:24;;;;;;;8.20;5.07;;;;;;;;;;5071654;28;20218;-61
2022/03/06 13:35:50;;;;;;;8.68;6.03;;;;;;;;;;5072790;28;20222;-61
2022/03/06 13:38:19;;;;;;;8.48;5.40;;;;;;;;;;5072049;28;20215;-61
2022/03/06 13:40:45;;;;;;;9.40;5.70;;;;;;;;;;5071961;28;20208;-61
2022/03/06 13:43:10;;;;;;;9.75;6.00;;;;;;;;;;5071761;28;20581;-61
2022/03/06 13:45:36;;;;;;;8.07;5.72;;;;;;;;;;5038470;28;20217;-61
2022/03/06 13:48:02;;;;;;;9.15;5.70;;;;;;;;;;5033388;28;20237;-61
2022/03/06 13:50:33;;;;;;;9.20;5.25;;;;;;;;;;5034805;28;20215;-61
2022/03/06 13:52:58;;;;;;;8.07;5.05;;;;;;;;;;5051880;28;20211;-61
2022/03/06 13:55:24;;;;;;;7.57;5.30;;;;;;;;;;5051276;28;20211;-61
2022/03/06 13:58:05;;;;;;;8.27;5.50;;;;;;;;;;5052352;28;20757;-61
2022/03/06 14:00:31;;;;;;;7.28;5.18;;;;;;;;;;5051853;28;20678;-61
2022/03/06 14:02:57;;;;;;;8.30;5.50;;;;;;;;;;5051546;28;20231;-61
2022/03/06 14:05:30;;;;;;;8.38;5.30;;;;;;;;;;5034035;28;20237;-61
2022/03/06 14:07:55;;;;;;;7.22;5.07;;;;;;;;;;5051592;28;20242;-61
2022/03/06 14:10:37;;;;;;;8.73;5.38;;;;;;;;;;5033546;28;20686;-61
2022/03/06 14:13:02;;;;;;;8.73;5.35;;;;;;;;;;5051379;28;20226;-61
2022/03/06 14:15:27;;;;;;;7.83;4.93;;;;;;;;;;5051286;28;20262;-61
2022/03/06 14:17:53;;;;;;;8.20;5.03;;;;;;;;;;5051733;28;20203;-61
2022/03/06 14:20:18;;;;;;;8.30;5.25;;;;;;;;;;5051446;28;20234;-61